Time;durP1;ratioP1;P1;durP2;ratioP2;P2;SDS_P1;SDS_P2;PMS_P1;PMS_P2;Temp;Humidity;BMP_temperature;BMP_pressure;BME280_temperature;BME280_humidity;BME280_pressure;Samples;Min_cycle;Max_cycle;Signal;HPM_P1;HPM_P2
2023/02/05 00:00:41;;;;;;;3.87;1.15;;;;;;;0.08;59.17;101169.22;5286492;27;20428;-90
2023/02/05 00:03:07;;;;;;;2.25;1.05;;;;;;;0.18;59.18;101166.97;5268106;27;20097;-90
2023/02/05 00:05:32;;;;;;;2.70;0.77;;;;;;;0.18;59.18;101181.47;5287563;27;20069;-90
2023/02/05 00:07:58;;;;;;;4.25;1.08;;;;;;;0.21;59.18;101177.31;5267885;27;20072;-90
2023/02/05 00:10:23;;;;;;;5.50;1.10;;;;;;;0.34;59.19;101165.78;5267483;27;20104;-89
2023/02/05 00:12:49;;;;;;;3.50;1.23;;;;;;;0.28;59.18;101184.41;5267909;27;20072;-90
2023/02/05 00:15:14;;;;;;;2.33;1.08;;;;;;;0.20;59.18;101185.81;5267789;27;20123;-89
2023/02/05 00:17:39;;;;;;;4.25;1.48;;;;;;;0.14;59.17;101182.19;5267193;27;20076;-90
2023/02/05 00:20:05;;;;;;;3.03;1.10;;;;;;;0.15;59.18;101191.62;5267658;27;20138;-90
2023/02/05 00:22:31;;;;;;;2.65;0.82;;;;;;;0.18;59.18;101191.72;5285916;27;20048;-89
2023/02/05 00:24:56;;;;;;;3.45;1.37;;;;;;;0.15;59.17;101182.25;5267723;27;20080;-90
2023/02/05 00:27:22;;;;;;;1.95;1.00;;;;;;;0.16;59.18;101188.25;5275900;27;20033;-90
2023/02/05 00:29:47;;;;;;;2.83;1.02;;;;;;;0.09;59.18;101194.84;5283986;26;20084;-89
2023/02/05 00:32:12;;;;;;;2.50;0.90;;;;;;;0.25;59.18;101193.69;5278786;27;20454;-88
2023/02/05 00:34:38;;;;;;;4.93;0.93;;;;;;;0.19;59.18;101191.75;5268800;27;20379;-88
2023/02/05 00:37:03;;;;;;;3.75;1.05;;;;;;;0.15;59.17;101202.72;5268924;27;20457;-89
2023/02/05 00:39:29;;;;;;;3.12;1.50;;;;;;;0.11;59.17;101190.66;5268196;27;20060;-89
2023/02/05 00:41:54;;;;;;;3.47;1.15;;;;;;;0.08;59.17;101190.56;5286292;27;20052;-90
2023/02/05 00:44:20;;;;;;;4.12;1.52;;;;;;;0.23;59.19;101200.41;5267443;27;20080;-91
2023/02/05 00:46:45;;;;;;;3.78;1.40;;;;;;;0.22;59.18;101199.53;5267412;27;20095;-90
2023/02/05 00:49:10;;;;;;;2.47;1.25;;;;;;;0.09;59.18;101207.66;5266795;27;20128;-91
2023/02/05 00:51:38;;;;;;;2.65;1.12;;;;;;;0.17;59.19;101202.78;5267726;27;20105;-91
2023/02/05 00:54:04;;;;;;;2.20;1.08;;;;;;;0.29;59.18;101213.44;5285526;27;20136;-91
2023/02/05 00:56:29;;;;;;;5.03;1.55;;;;;;;0.17;59.18;101226.69;5268029;27;20443;-90
2023/02/05 00:58:58;;;;;;;3.33;1.20;;;;;;;0.47;59.20;101220.84;5267534;27;20060;-91
2023/02/05 01:01:24;;;;;;;2.97;0.95;;;;;;;0.42;59.19;101217.25;5289260;26;20045;-92
2023/02/05 01:03:50;;;;;;;3.70;1.30;;;;;;;0.43;59.19;101217.31;5286111;27;20084;-92
2023/02/05 01:06:15;;;;;;;3.10;1.25;;;;;;;0.15;59.17;101215.53;5267805;27;20383;-92
2023/02/05 01:08:41;;;;;;;4.20;1.05;;;;;;;0.11;59.18;101231.62;5267912;27;20112;-90
2023/02/05 01:11:07;;;;;;;4.05;1.20;;;;;;;0.30;59.18;101222.88;5268104;27;20447;-92
2023/02/05 01:13:32;;;;;;;1.75;1.05;;;;;;;0.26;59.19;101221.91;5286160;27;20116;-92
2023/02/05 01:15:58;;;;;;;1.75;0.82;;;;;;;0.58;59.20;101227.19;5268285;27;20425;-91
2023/02/05 01:18:23;;;;;;;2.50;1.40;;;;;;;0.40;59.20;101229.16;5267258;27;20091;-92
2023/02/05 01:20:51;;;;;;;3.03;1.33;;;;;;;0.52;59.20;101239.81;5269393;27;20072;-89
2023/02/05 01:23:16;;;;;;;3.97;1.48;;;;;;;0.49;59.20;101235.47;5269704;27;20782;-90
2023/02/05 01:25:42;;;;;;;2.97;1.15;;;;;;;0.62;59.21;101229.03;5270039;27;20068;-91
2023/02/05 01:28:07;;;;;;;2.40;1.17;;;;;;;0.58;59.20;101240.87;5269130;27;20061;-92
2023/02/05 01:30:33;;;;;;;3.42;1.25;;;;;;;0.54;59.20;101233.91;5268928;27;20109;-91
2023/02/05 01:32:58;;;;;;;4.28;0.85;;;;;;;0.52;59.21;101230.44;5286706;27;20060;-91
2023/02/05 01:35:24;;;;;;;3.50;1.05;;;;;;;0.30;59.19;101236.53;5287115;27;20077;-92
2023/02/05 01:37:49;;;;;;;8.85;1.75;;;;;;;0.36;59.19;101227.31;5268923;27;20100;-93
2023/02/05 01:40:16;;;;;;;4.53;1.35;;;;;;;0.39;59.20;101222.28;5269497;27;20080;-91
2023/02/05 01:42:42;;;;;;;2.17;1.10;;;;;;;0.29;59.18;101224.56;5267844;27;20110;-91
2023/02/05 01:45:25;;;;;;;4.68;1.50;;;;;;;0.21;59.18;101222.53;5268162;27;20318;-91
2023/02/05 01:47:55;;;;;;;4.00;0.90;;;;;;;0.27;59.19;101221.06;5304720;27;20060;-92
2023/02/05 01:50:30;;;;;;;6.18;1.23;;;;;;;0.40;59.19;101213.78;5292058;27;100486;-91
2023/02/05 01:52:56;;;;;;;2.17;1.17;;;;;;;0.39;59.20;101206.91;5269627;27;20029;-91
2023/02/05 01:55:22;;;;;;;2.25;1.23;;;;;;;0.25;59.19;101211.59;5286608;27;20087;-92
2023/02/05 01:57:47;;;;;;;2.12;1.08;;;;;;;0.22;59.17;101214.03;5268824;27;20056;-91
2023/02/05 02:00:13;;;;;;;2.58;1.48;;;;;;;0.31;59.19;101216.91;5286692;27;20059;-91
2023/02/05 02:02:39;;;;;;;5.72;1.27;;;;;;;0.24;59.18;101217.56;5271488;27;20060;-92
2023/02/05 02:05:09;;;;;;;4.90;1.08;;;;;;;0.33;59.19;101216.97;5268726;27;20090;-91
2023/02/05 02:07:35;;;;;;;5.65;1.50;;;;;;;0.35;59.19;101226.44;5287021;27;20069;-91
2023/02/05 02:10:00;;;;;;;5.07;1.20;;;;;;;0.56;59.20;101231.41;5269098;27;20073;-91
2023/02/05 02:12:27;;;;;;;2.30;1.10;;;;;;;0.51;59.20;101236.38;5269274;27;20096;-91
2023/02/05 02:14:54;;;;;;;3.25;1.62;;;;;;;0.52;59.19;101234.69;5286695;27;20073;-91
2023/02/05 02:17:20;;;;;;;2.62;1.23;;;;;;;0.58;59.20;101230.63;5286571;27;20123;-91
2023/02/05 02:20:03;;;;;;;5.10;1.75;;;;;;;0.56;59.20;101226.28;5268745;27;20052;-91
2023/02/05 02:22:44;;;;;;;4.82;2.00;;;;;;;0.49;59.20;101232.03;5288011;27;20437;-91
2023/02/05 02:25:43;;;;;;;2.53;0.98;;;;;;;0.56;59.20;101236.53;5305221;27;20071;-90
2023/02/05 02:28:09;;;;;;;2.60;1.03;;;;;;;0.57;59.20;101239.12;5305204;27;20437;-91
2023/02/05 02:30:51;;;;;;;2.83;1.12;;;;;;;0.58;59.20;101227.19;5287240;27;20071;-90
2023/02/05 02:33:21;;;;;;;2.83;1.10;;;;;;;0.67;59.21;101244.53;5287012;27;20128;-90
2023/02/05 02:35:59;;;;;;;2.62;0.98;;;;;;;0.61;59.21;101235.84;5287403;27;20030;-91
2023/02/05 02:38:32;;;;;;;4.53;0.93;;;;;;;0.74;59.21;101233.69;5287637;27;20116;-90
2023/02/05 02:41:13;;;;;;;2.78;1.12;;;;;;;0.56;59.20;101237.37;5286930;27;20067;-91
2023/02/05 02:43:44;;;;;;;2.20;1.20;;;;;;;0.40;59.20;101241.94;5286849;27;20104;-91
2023/02/05 02:46:43;;;;;;;2.35;0.85;;;;;;;0.36;59.19;101241.00;5286865;27;20690;-91
2023/02/05 02:49:12;;;;;;;4.70;1.17;;;;;;;0.37;59.19;101255.53;5289335;27;20053;-92
2023/02/05 02:51:38;;;;;;;3.33;1.20;;;;;;;0.42;59.19;101246.31;5302351;26;20039;-91
2023/02/05 02:54:05;;;;;;;1.95;0.90;;;;;;;0.49;59.20;101247.41;5281769;27;22110;-90
2023/02/05 02:56:31;;;;;;;2.58;1.23;;;;;;;0.50;59.20;101262.81;5288825;27;20061;-89
2023/02/05 02:59:05;;;;;;;1.52;1.08;;;;;;;0.61;59.20;101260.59;5268294;27;20107;-89
2023/02/05 03:01:33;;;;;;;3.40;1.20;;;;;;;0.66;59.22;101259.03;5286675;27;20413;-89
2023/02/05 03:04:03;;;;;;;1.62;0.70;;;;;;;0.55;59.20;101268.09;5269065;27;20120;-90
2023/02/05 03:06:32;;;;;;;4.30;1.25;;;;;;;0.66;59.21;101268.41;5286462;27;20069;-89
2023/02/05 03:09:03;;;;;;;3.17;1.17;;;;;;;0.67;59.21;101273.59;5268176;27;20060;-88
2023/02/05 03:11:29;;;;;;;3.30;0.98;;;;;;;0.48;59.20;101266.16;5285920;27;20072;-90
2023/02/05 03:13:57;;;;;;;1.83;0.90;;;;;;;0.64;59.21;101275.19;5268100;27;20123;-88
2023/02/05 03:16:26;;;;;;;2.17;1.20;;;;;;;0.76;59.21;101268.78;5269433;27;20033;-89
2023/02/05 03:18:54;;;;;;;2.72;1.30;;;;;;;0.74;59.22;101273.00;5267800;27;20147;-94
2023/02/05 03:21:40;;;;;;;3.33;1.20;;;;;;;0.64;59.21;101280.31;5271558;27;20740;-93
2023/02/05 03:24:09;;;;;;;3.60;1.33;;;;;;;0.51;59.20;101284.19;5308107;27;20028;-92
2023/02/05 03:26:37;;;;;;;6.35;1.70;;;;;;;0.59;59.21;101282.72;5273238;27;20076;-93
2023/02/05 03:29:11;;;;;;;2.25;1.00;;;;;;;0.55;59.20;101286.03;5273081;27;20061;-93
2023/02/05 03:32:11;;;;;;;2.42;0.88;;;;;;;0.49;59.20;101281.56;5290255;27;20057;-93
2023/02/05 03:34:51;;;;;;;5.12;1.55;;;;;;;0.55;59.20;101297.13;5291257;27;20069;-92
2023/02/05 03:37:33;;;;;;;2.75;1.23;;;;;;;0.58;59.20;101302.38;5292692;27;20032;-92
2023/02/05 03:40:39;;;;;;;5.90;2.40;;;;;;;0.47;59.20;101306.25;5291895;27;20070;-93
2023/02/05 03:43:24;;;;;;;2.87;1.65;;;;;;;0.64;59.21;101311.94;5309415;27;20036;-93
2023/02/05 03:45:58;;;;;;;3.83;1.35;;;;;;;0.59;59.21;101311.78;5290560;27;20544;-88
2023/02/05 03:48:36;;;;;;;5.22;1.58;;;;;;;0.68;59.21;101313.78;5304122;27;20065;-89
2023/02/05 03:51:22;;;;;;;5.00;1.27;;;;;;;0.84;59.22;101305.78;5286130;27;20055;-89
2023/02/05 03:54:19;;;;;;;4.15;1.40;;;;;;;0.77;59.22;101318.34;5286780;27;20087;-89
2023/02/05 03:56:56;;;;;;;5.12;1.10;;;;;;;0.61;59.21;101322.97;5283032;27;20061;-89
2023/02/05 03:59:21;;;;;;;3.17;1.15;;;;;;;0.71;59.21;101321.59;5286811;27;20056;-90
2023/02/05 04:01:47;;;;;;;3.05;1.20;;;;;;;0.68;59.21;101329.16;5268261;27;20075;-90
2023/02/05 04:04:12;;;;;;;3.40;1.20;;;;;;;0.66;59.21;101335.03;5268246;27;20453;-90
2023/02/05 04:06:38;;;;;;;3.97;1.10;;;;;;;0.55;59.20;101333.00;5268098;27;20080;-89
2023/02/05 04:09:03;;;;;;;3.47;1.48;;;;;;;0.76;59.22;101326.84;5268370;27;20072;-90
2023/02/05 04:11:29;;;;;;;0.82;0.60;;;;;;;0.71;59.21;101334.41;5268159;27;20079;-89
2023/02/05 04:13:54;;;;;;;3.90;1.50;;;;;;;0.84;59.22;101336.53;5268462;27;20080;-90
2023/02/05 04:16:19;;;;;;;4.45;1.20;;;;;;;0.49;59.20;101337.94;5267899;27;20079;-89
2023/02/05 04:18:45;;;;;;;3.30;1.83;;;;;;;0.90;59.22;101335.84;5270625;27;20064;-89
2023/02/05 04:21:10;;;;;;;1.80;1.30;;;;;;;0.86;59.22;101336.56;5267524;27;22371;-89
2023/02/05 04:23:36;;;;;;;3.67;1.30;;;;;;;0.79;59.21;101344.91;5268237;27;20135;-90
2023/02/05 04:26:01;;;;;;;2.75;1.40;;;;;;;0.68;59.21;101352.22;5268192;27;20124;-89
2023/02/05 04:28:27;;;;;;;2.17;1.08;;;;;;;0.91;59.23;101341.03;5267951;27;20072;-90
2023/02/05 04:30:52;;;;;;;5.50;1.37;;;;;;;1.07;59.23;101351.78;5286111;27;20063;-89
2023/02/05 04:33:17;;;;;;;5.10;1.70;;;;;;;0.97;59.23;101353.19;5267934;27;20068;-89
2023/02/05 04:35:43;;;;;;;4.00;1.27;;;;;;;1.00;59.22;101353.28;5267869;27;20462;-89
2023/02/05 04:38:08;;;;;;;3.58;1.27;;;;;;;0.89;59.21;101357.19;5267699;27;20378;-89
2023/02/05 04:40:34;;;;;;;3.58;1.35;;;;;;;0.80;59.21;101359.47;5267161;27;20102;-88
2023/02/05 04:42:59;;;;;;;2.90;1.20;;;;;;;0.89;59.23;101357.19;5267271;27;20090;-89
2023/02/05 04:45:29;;;;;;;4.40;1.50;;;;;;;0.81;59.21;101362.06;5267996;27;20155;-89
2023/02/05 04:47:55;;;;;;;;;;;;;;;0.94;59.22;101363.31;5269360;27;20126;-88
2023/02/05 04:50:21;;;;;;;3.20;1.20;;;;;;;0.92;59.22;101368.41;5297384;27;19954;-89
2023/02/05 04:52:46;;;;;;;5.20;1.23;;;;;;;1.01;59.23;101369.53;5269778;27;20130;-88
2023/02/05 04:55:12;;;;;;;3.35;1.00;;;;;;;0.74;59.21;101384.88;5267516;27;20057;-89
2023/02/05 04:57:37;;;;;;;3.90;1.58;;;;;;;0.99;59.22;101378.88;5268355;27;20076;-88
2023/02/05 05:00:03;;;;;;;2.67;1.23;;;;;;;0.82;59.22;101376.63;5268920;27;20092;-90
2023/02/05 05:02:28;;;;;;;3.33;1.23;;;;;;;0.68;59.21;101380.41;5287243;27;20045;-90
2023/02/05 05:04:54;;;;;;;5.30;1.30;;;;;;;0.56;59.20;101380.88;5269175;27;20095;-90
2023/02/05 05:07:19;;;;;;;4.45;1.58;;;;;;;0.53;59.20;101385.91;5269085;27;20110;-91
2023/02/05 05:09:45;;;;;;;3.33;1.10;;;;;;;0.51;59.20;101384.97;5287186;27;20068;-90
2023/02/05 05:12:10;;;;;;;3.45;1.25;;;;;;;0.49;59.20;101384.03;5288157;27;20049;-90
2023/02/05 05:14:36;;;;;;;4.05;1.05;;;;;;;0.26;59.19;101387.50;5269279;27;20070;-89
2023/02/05 05:17:01;;;;;;;2.15;1.27;;;;;;;0.40;59.20;101393.09;5269871;27;20884;-90
2023/02/05 05:19:27;;;;;;;2.37;1.15;;;;;;;0.37;59.19;101401.53;5268828;27;20075;-90
2023/02/05 05:21:52;;;;;;;4.20;1.30;;;;;;;0.32;59.19;101407.31;5269306;27;20382;-90
2023/02/05 05:24:18;;;;;;;4.43;1.77;;;;;;;0.27;59.19;101404.59;5269258;27;20385;-90
2023/02/05 05:26:43;;;;;;;4.70;1.90;;;;;;;0.21;59.18;101407.78;5269199;27;20048;-89
2023/02/05 05:29:12;;;;;;;4.25;2.35;;;;;;;0.24;59.18;101417.28;5269192;27;20108;-88
2023/02/05 05:31:38;;;;;;;2.07;1.20;;;;;;;0.29;59.18;101416.63;5268557;27;20128;-89
2023/02/05 05:34:06;;;;;;;1.98;1.10;;;;;;;0.33;59.19;101419.31;5270906;27;20537;-88
2023/02/05 05:36:31;;;;;;;6.93;1.65;;;;;;;0.17;59.18;101420.44;5269451;27;20025;-88
2023/02/05 05:43:45;;;;;;;3.67;1.17;;;;;;;0.27;59.19;101420.84;5268759;27;20409;-89
2023/02/05 05:44:43;;;;;;;3.70;1.25;;;;;;;0.17;59.18;101431.53;5256375;27;20080;-86
2023/02/05 05:47:08;;;;;;;2.37;1.05;;;;;;;0.22;59.18;101426.59;5258846;27;20057;-88
2023/02/05 05:49:34;;;;;;;2.37;1.17;;;;;;;0.13;59.18;101429.69;5286821;27;20044;-89
2023/02/05 05:52:00;;;;;;;4.43;1.65;;;;;;;0.10;59.17;101429.56;5268686;27;20295;-88
2023/02/05 05:54:25;;;;;;;4.07;1.33;;;;;;;0.05;59.17;101433.66;5270560;27;20147;-88
2023/02/05 05:56:50;;;;;;;3.10;1.67;;;;;;;-0.01;59.17;101441.09;5268461;27;20053;-88
2023/02/05 05:59:16;;;;;;;4.50;1.27;;;;;;;-0.15;59.15;101439.72;5269038;27;20140;-90
2023/02/05 06:01:41;;;;;;;2.50;1.02;;;;;;;-0.07;59.16;101443.44;5269054;27;20109;-89
2023/02/05 06:04:07;;;;;;;4.85;1.35;;;;;;;-0.01;59.17;101448.75;5268360;27;20060;-88
2023/02/05 06:06:32;;;;;;;3.40;1.33;;;;;;;-0.02;59.17;101454.69;5268381;27;20108;-90
2023/02/05 06:08:58;;;;;;;3.28;1.02;;;;;;;0.09;59.17;101450.00;5268323;27;20057;-92
2023/02/05 06:11:23;;;;;;;3.30;1.20;;;;;;;0.10;59.18;101452.62;5269539;27;20372;-92
2023/02/05 06:13:48;;;;;;;3.30;1.10;;;;;;;0.02;59.17;101459.16;5269291;27;20108;-92
2023/02/05 06:16:14;;;;;;;4.25;1.48;;;;;;;0.08;59.17;101467.06;5269245;27;20132;-90
2023/02/05 06:18:39;;;;;;;2.33;1.30;;;;;;;0.13;59.18;101462.97;5286545;27;20044;-89
2023/02/05 06:21:05;;;;;;;3.03;1.42;;;;;;;0.05;59.17;101469.50;5268722;27;20456;-89
2023/02/05 06:23:31;;;;;;;3.37;2.05;;;;;;;-0.11;59.16;101473.16;5280515;27;20060;-89
2023/02/05 06:25:57;;;;;;;2.65;1.10;;;;;;;0.26;59.18;101472.00;5284648;27;20029;-89
2023/02/05 06:28:23;;;;;;;4.53;1.42;;;;;;;0.29;59.18;101464.44;5277056;27;20313;-87
2023/02/05 06:30:54;;;;;;;4.03;1.17;;;;;;;0.43;59.19;101464.91;5267643;27;20053;-85
2023/02/05 06:33:22;;;;;;;2.28;1.35;;;;;;;0.44;59.20;101462.41;5286333;27;20025;-89
2023/02/05 06:35:48;;;;;;;3.22;1.62;;;;;;;0.34;59.19;101460.34;5286206;27;20114;-90
2023/02/05 06:38:13;;;;;;;7.30;1.98;;;;;;;0.21;59.18;101465.81;5268197;27;20396;-89
2023/02/05 06:40:38;;;;;;;3.20;1.50;;;;;;;0.04;59.17;101480.56;5268443;27;20414;-89
2023/02/05 06:43:04;;;;;;;2.62;1.23;;;;;;;-0.05;59.17;101475.94;5268447;27;20374;-89
2023/02/05 06:45:29;;;;;;;3.60;1.67;;;;;;;0.02;59.17;101482.19;5267965;27;20321;-89
2023/02/05 06:47:56;;;;;;;3.75;1.55;;;;;;;0.03;59.17;101483.94;5268043;27;20089;-89
2023/02/05 06:50:22;;;;;;;3.78;1.10;;;;;;;0.13;59.17;101472.34;5268481;27;20095;-89
2023/02/05 06:52:48;;;;;;;2.97;1.15;;;;;;;0.13;59.17;101474.91;5268437;27;20076;-89
2023/02/05 06:55:14;;;;;;;3.00;1.27;;;;;;;0.11;59.18;101479.09;5286533;27;20065;-89
2023/02/05 06:57:39;;;;;;;5.18;1.70;;;;;;;0.08;59.17;101487.53;5268218;27;20087;-89
2023/02/05 07:00:06;;;;;;;4.80;1.40;;;;;;;0.16;59.18;101490.38;5268574;27;20057;-89
2023/02/05 07:02:31;;;;;;;3.80;1.50;;;;;;;0.05;59.17;101494.22;5286227;27;20409;-90
2023/02/05 07:04:57;;;;;;;5.53;1.75;;;;;;;-0.10;59.16;101497.94;5268115;27;20100;-88
2023/02/05 07:07:22;;;;;;;7.07;2.22;;;;;;;0.10;59.18;101497.84;5268081;27;20456;-90
2023/02/05 07:09:47;;;;;;;5.75;1.95;;;;;;;0.21;59.18;101502.53;5268406;27;20412;-86
2023/02/05 07:12:13;;;;;;;7.07;1.52;;;;;;;0.30;59.18;101502.03;5267978;27;20477;-86
2023/02/05 07:14:39;;;;;;;3.28;1.15;;;;;;;0.18;59.18;101497.31;5286206;27;20075;-88
2023/02/05 07:17:04;;;;;;;5.12;1.58;;;;;;;0.13;59.18;101506.50;5268035;27;20049;-89
2023/02/05 07:19:30;;;;;;;3.90;1.33;;;;;;;0.25;59.19;101506.97;5267916;27;20057;-87
2023/02/05 07:21:56;;;;;;;6.85;1.60;;;;;;;-0.03;59.16;101511.84;5267638;27;20112;-86
2023/02/05 07:24:21;;;;;;;3.47;1.67;;;;;;;0.02;59.18;101517.16;5304469;27;20075;-87
2023/02/05 07:26:47;;;;;;;2.40;1.40;;;;;;;0.06;59.17;101516.47;5286012;27;20139;-89
2023/02/05 07:29:12;;;;;;;4.00;1.58;;;;;;;0.17;59.18;101518.59;5267784;27;20081;-88
2023/02/05 07:31:37;;;;;;;3.25;1.40;;;;;;;0.21;59.18;101520.47;5286263;27;20109;-89
2023/02/05 07:34:03;;;;;;;4.15;1.75;;;;;;;0.22;59.18;101521.31;5268218;27;20068;-89
2023/02/05 07:36:28;;;;;;;5.80;2.40;;;;;;;0.16;59.18;101532.22;5267980;27;20364;-89
2023/02/05 07:38:54;;;;;;;5.47;2.28;;;;;;;0.29;59.18;101537.00;5267949;27;20045;-89
2023/02/05 07:41:19;;;;;;;5.70;3.20;;;;;;;0.18;59.18;101533.16;5268363;27;20116;-88
2023/02/05 07:43:45;;;;;;;6.68;1.80;;;;;;;0.21;59.18;101540.94;5286166;27;20109;-89
2023/02/05 07:46:11;;;;;;;2.65;1.42;;;;;;;0.41;59.20;101525.47;5268197;27;20460;-88
2023/02/05 07:48:37;;;;;;;3.17;1.40;;;;;;;0.56;59.20;101523.47;5267574;27;20159;-88
2023/02/05 07:51:03;;;;;;;2.75;1.37;;;;;;;0.62;59.21;101522.00;5268027;27;20412;-88
2023/02/05 07:53:28;;;;;;;5.05;1.75;;;;;;;0.63;59.21;101520.31;5270104;27;20065;-88
2023/02/05 07:55:54;;;;;;;2.40;1.27;;;;;;;0.80;59.21;101521.81;5292650;27;20027;-89
2023/02/05 07:58:19;;;;;;;22.08;7.32;;;;;;;0.62;59.20;101516.88;5277872;27;20111;-88
2023/02/05 08:00:44;;;;;;;10.38;4.28;;;;;;;1.06;59.23;101519.28;5268257;27;20057;-89
2023/02/05 08:03:10;;;;;;;9.90;3.90;;;;;;;0.90;59.23;101516.19;5268113;27;20061;-88
2023/02/05 08:05:36;;;;;;;4.72;1.87;;;;;;;1.24;59.24;101522.50;5268392;27;20353;-89
2023/02/05 08:08:01;;;;;;;3.28;1.48;;;;;;;1.44;59.25;101510.34;5286417;27;20067;-89
2023/02/05 08:10:27;;;;;;;4.47;2.05;;;;;;;1.41;59.26;101515.34;5267925;27;20075;-88
2023/02/05 08:12:53;;;;;;;3.80;2.00;;;;;;;1.63;59.26;101511.78;5268788;27;20056;-89
2023/02/05 08:15:18;;;;;;;4.22;1.50;;;;;;;1.62;59.26;101507.47;5268157;27;20056;-89
2023/02/05 08:17:44;;;;;;;2.70;1.42;;;;;;;1.80;59.28;101505.50;5267878;27;20057;-89
2023/02/05 08:20:10;;;;;;;3.08;1.58;;;;;;;1.82;59.27;101506.41;5268128;27;20315;-89
2023/02/05 08:22:37;;;;;;;3.03;1.60;;;;;;;1.57;59.26;101504.78;5285985;27;20067;-89
2023/02/05 08:25:04;;;;;;;4.20;1.35;;;;;;;1.54;59.26;101495.28;5288257;27;20055;-89
2023/02/05 08:27:31;;;;;;;4.22;1.73;;;;;;;1.87;59.28;101504.84;5285917;27;20098;-86
2023/02/05 08:29:56;;;;;;;3.53;1.60;;;;;;;1.91;59.28;101499.03;5286097;27;20021;-89
2023/02/05 08:32:22;;;;;;;5.35;1.67;;;;;;;2.11;59.29;101499.59;5286092;27;20052;-89
2023/02/05 08:34:47;;;;;;;3.60;1.55;;;;;;;2.15;59.30;101493.75;5286706;27;20063;-89
2023/02/05 08:37:12;;;;;;;4.50;1.95;;;;;;;2.09;59.29;101497.00;5268486;27;20059;-87
2023/02/05 08:39:38;;;;;;;3.92;1.98;;;;;;;2.19;59.30;101477.59;5286997;27;20465;-89
2023/02/05 08:42:03;;;;;;;4.68;1.60;;;;;;;2.39;59.31;101494.47;5269413;27;20071;-89
2023/02/05 08:44:29;;;;;;;5.80;2.00;;;;;;;2.18;59.29;101485.28;5269864;27;20056;-89
2023/02/05 08:46:55;;;;;;;4.82;1.58;;;;;;;2.48;59.31;101483.59;5286616;27;20144;-88
2023/02/05 08:49:20;;;;;;;5.28;1.83;;;;;;;2.39;59.31;101486.78;5268226;27;20095;-88
2023/02/05 08:51:46;;;;;;;6.20;1.58;;;;;;;2.49;59.31;101492.16;5268387;27;20056;-89
2023/02/05 08:54:12;;;;;;;5.78;1.87;;;;;;;2.54;59.32;101501.75;5287180;27;20075;-89
2023/02/05 08:56:44;;;;;;;3.08;1.70;;;;;;;2.34;59.30;101495.16;5268871;27;20116;-88
2023/02/05 08:59:10;;;;;;;4.12;1.40;;;;;;;2.37;59.31;101493.56;5287035;27;20061;-90
2023/02/05 09:01:41;;;;;;;3.67;1.45;;;;;;;2.43;59.31;101498.88;5286486;27;20075;-89
2023/02/05 09:04:09;;;;;;;5.22;1.62;;;;;;;2.47;59.31;101502.41;5271004;27;20072;-89
2023/02/05 09:06:34;;;;;;;9.23;2.17;;;;;;;2.64;59.33;101506.34;5288750;27;20017;-89
2023/02/05 09:09:05;;;;;;;2.87;1.73;;;;;;;2.74;59.33;101513.47;5286546;27;20115;-93
2023/02/05 09:11:30;;;;;;;3.58;1.90;;;;;;;2.77;59.33;101508.41;5271928;27;20069;-95
2023/02/05 09:13:56;;;;;;;5.35;1.60;;;;;;;2.65;59.33;101502.94;5270152;27;20067;-93
2023/02/05 09:16:22;;;;;;;4.30;1.10;;;;;;;2.69;59.32;101506.47;5287016;27;20053;-94
2023/02/05 09:18:50;;;;;;;5.55;1.55;;;;;;;2.49;59.31;101513.59;5269292;27;20358;-93
2023/02/05 09:21:18;;;;;;;4.18;1.60;;;;;;;2.63;59.32;101508.88;5269817;27;20166;-93
2023/02/05 09:23:44;;;;;;;2.72;0.95;;;;;;;2.55;59.32;101495.78;5268772;27;20056;-89
2023/02/05 09:26:09;;;;;;;3.67;1.98;;;;;;;2.78;59.33;101493.84;5270665;27;20376;-94
2023/02/05 09:28:38;;;;;;;2.92;1.33;;;;;;;2.93;59.33;101503.69;5269694;27;20071;-92
2023/02/05 09:31:11;;;;;;;5.47;1.80;;;;;;;3.11;59.35;101504.19;5287561;27;20057;-90
2023/02/05 09:33:36;;;;;;;3.37;1.30;;;;;;;3.16;59.36;101502.59;5286875;27;20021;-93
2023/02/05 09:36:12;;;;;;;3.03;1.45;;;;;;;3.34;59.37;101509.94;5268328;27;20070;-88
2023/02/05 09:38:41;;;;;;;3.90;1.50;;;;;;;3.33;59.37;101509.06;5284745;27;20076;-89
2023/02/05 09:41:12;;;;;;;5.87;2.35;;;;;;;3.23;59.35;101504.50;5267956;27;20448;-90
2023/02/05 09:43:46;;;;;;;6.30;2.15;;;;;;;3.20;59.36;101500.97;5303535;27;20052;-83
2023/02/05 09:46:46;;;;;;;3.22;1.48;;;;;;;3.24;59.36;101506.22;5286352;27;20465;-86
2023/02/05 09:49:17;;;;;;;3.20;1.45;;;;;;;3.30;59.36;101501.22;5285913;27;20120;-86
2023/02/05 09:51:44;;;;;;;3.90;1.40;;;;;;;3.22;59.35;101501.87;5303150;27;20084;-86
2023/02/05 09:54:21;;;;;;;3.25;1.20;;;;;;;3.20;59.36;101501.84;5285499;27;20177;-86
2023/02/05 09:56:47;;;;;;;4.12;0.93;;;;;;;3.34;59.36;101503.06;5285779;27;20040;-86
2023/02/05 09:59:18;;;;;;;2.33;0.93;;;;;;;3.37;59.36;101508.31;5285110;27;20106;-84
2023/02/05 10:01:51;;;;;;;4.37;1.35;;;;;;;3.36;59.36;101508.25;5266723;27;20068;-86
2023/02/05 10:04:17;;;;;;;3.92;1.45;;;;;;;3.55;59.38;101502.75;5285742;27;20057;-86
2023/02/05 10:07:05;;;;;;;8.80;2.55;;;;;;;3.82;59.39;101487.06;5286220;27;20068;-86
2023/02/05 10:09:49;;;;;;;4.03;1.15;;;;;;;3.98;59.41;101491.72;5289450;27;20148;-85
2023/02/05 10:12:14;;;;;;;5.57;1.87;;;;;;;3.93;59.39;101492.47;5303120;27;20111;-84
2023/02/05 10:15:01;;;;;;;3.22;1.48;;;;;;;4.11;59.40;101485.16;5322437;27;20413;-83
2023/02/05 10:18:27;;;;;;;5.45;2.15;;;;;;;4.13;59.41;101474.88;5304864;27;20144;-84
2023/02/05 10:21:04;;;;;;;8.07;2.22;;;;;;;4.08;59.40;101477.34;5198726;27;20428;-84
2023/02/05 10:23:38;;;;;;;4.72;2.15;;;;;;;4.13;59.41;101470.59;5210789;27;20087;-83
2023/02/05 10:26:06;;;;;;;4.35;1.60;;;;;;;4.16;59.41;101468.06;5267005;27;20060;-83
2023/02/05 10:28:44;;;;;;;4.12;1.85;;;;;;;4.24;59.41;101470.78;5302583;27;20108;-84
2023/02/05 10:31:35;;;;;;;3.50;1.67;;;;;;;4.51;59.43;101473.97;5284362;27;20126;-84
2023/02/05 10:34:27;;;;;;;3.97;1.58;;;;;;;4.54;59.43;101468.88;5284701;27;20064;-84
2023/02/05 10:36:53;;;;;;;4.78;1.80;;;;;;;4.67;59.44;101471.69;5285358;27;20063;-85
2023/02/05 10:39:20;;;;;;;8.77;3.97;;;;;;;4.72;59.45;101458.03;5267322;27;20337;-87
2023/02/05 10:41:49;;;;;;;5.80;2.45;;;;;;;4.70;59.43;101470.03;5285851;27;20053;-84
2023/02/05 10:44:17;;;;;;;4.72;1.75;;;;;;;4.70;59.44;101467.44;5266566;27;20064;-87
2023/02/05 10:46:50;;;;;;;3.97;1.67;;;;;;;4.50;59.42;101471.37;5285621;27;20932;-87
2023/02/05 10:49:25;;;;;;;3.67;1.85;;;;;;;4.65;59.44;101468.19;5270202;27;20072;-88
2023/02/05 10:51:52;;;;;;;2.40;1.23;;;;;;;4.68;59.44;101463.09;5286026;27;20079;-87
2023/02/05 10:54:33;;;;;;;2.58;1.30;;;;;;;4.71;59.44;101451.13;5285601;27;20447;-87
2023/02/05 10:56:58;;;;;;;2.62;1.15;;;;;;;4.64;59.44;101454.44;5268058;27;20053;-87
2023/02/05 10:59:31;;;;;;;3.35;1.58;;;;;;;4.75;59.45;101452.94;5268205;27;20318;-87
2023/02/05 11:02:01;;;;;;;3.15;1.35;;;;;;;4.54;59.43;101453.41;5287418;27;20110;-87
2023/02/05 11:04:46;;;;;;;4.20;1.25;;;;;;;4.58;59.43;101459.47;5286279;27;20057;-87
2023/02/05 11:07:19;;;;;;;4.25;1.25;;;;;;;4.53;59.43;101459.41;5285156;27;20052;-85
2023/02/05 11:09:45;;;;;;;4.12;1.58;;;;;;;4.52;59.43;101451.63;5285400;27;20440;-87
2023/02/05 11:12:28;;;;;;;2.60;1.08;;;;;;;4.63;59.44;101455.28;5267712;27;20113;-87
2023/02/05 11:14:58;;;;;;;2.97;1.20;;;;;;;4.45;59.43;101447.16;5285533;27;20065;-87
2023/02/05 11:17:27;;;;;;;3.90;1.85;;;;;;;4.87;59.46;101444.56;5283567;27;20424;-85
2023/02/05 11:20:03;;;;;;;3.35;1.50;;;;;;;4.97;59.46;101443.91;5284444;27;20400;-85
2023/02/05 11:22:34;;;;;;;3.65;1.17;;;;;;;5.03;59.46;101445.72;5285304;27;20606;-86
2023/02/05 11:25:27;;;;;;;3.28;1.58;;;;;;;5.03;59.46;101448.28;5285106;27;20075;-86
2023/02/05 11:27:57;;;;;;;5.78;1.25;;;;;;;5.02;59.46;101443.97;5292193;27;20819;-86
2023/02/05 11:30:35;;;;;;;;;;;;;;;5.01;59.47;101437.94;5285334;27;20118;-87
2023/02/05 11:33:30;;;;;;;7.35;1.70;;;;;;;4.72;59.45;101439.97;5285683;27;19967;-86
2023/02/05 11:36:06;;;;;;;2.95;1.50;;;;;;;4.87;59.46;101435.09;5303166;27;20064;-86
2023/02/05 11:38:32;;;;;;;3.15;1.27;;;;;;;4.69;59.44;101429.59;5285055;27;20432;-87
2023/02/05 11:41:03;;;;;;;4.78;2.37;;;;;;;4.59;59.43;101426.00;5305814;27;20053;-87
2023/02/05 11:43:43;;;;;;;4.93;2.05;;;;;;;4.60;59.43;101425.16;5285553;27;20088;-88
2023/02/05 11:46:09;;;;;;;7.07;2.45;;;;;;;4.37;59.43;101428.12;5284632;27;20036;-82